Terminal Aerodrome Forecast
Issued by NWS Cleveland, OH

Home | Current Version | Previous Version | Graphics & Text | Print | Product List | Glossary Off
Versions: 1 2 3 4 5 6 7 8 9 10 11 12 13 14 15 16 17 18 19

000
FTUS41 KCLE 010800 AAA
TAFERI
TAF AMD
KERI 010823Z 0108/0206 VRB03KT P6SM BKN008
      TEMPO 0110/0113 4SM BR OVC008
     FM011400 09005KT P6SM BKN012
     FM011600 09005KT P6SM BKN020
     FM011800 05007KT P6SM BKN035=

USA.gov is the U.S. government's official web portal to all federal, state and local government web resources and services.